sensor_id;sensor_type;location;lat;lon;timestamp;pressure;altitude;pressure_sealevel;temperature;humidity
59417;BME280;45222;52.458;20.914;2024-01-30T00:00:48;102465.84;;;-1.93;88.56
59417;BME280;45222;52.458;20.914;2024-01-30T00:04:56;102469.88;;;-1.87;88.60
59417;BME280;45222;52.458;20.914;2024-01-30T00:08:43;102468.88;;;-1.86;88.49
59417;BME280;45222;52.458;20.914;2024-01-30T00:12:33;102464.79;;;-1.88;88.40
59417;BME280;45222;52.458;20.914;2024-01-30T00:16:24;102459.86;;;-1.90;88.16
59417;BME280;45222;52.458;20.914;2024-01-30T00:20:13;102462.83;;;-1.94;87.86
59417;BME280;45222;52.458;20.914;2024-01-30T00:24:01;102461.80;;;-1.98;87.60
59417;BME280;45222;52.458;20.914;2024-01-30T00:27:49;102459.96;;;-1.96;87.99
59417;BME280;45222;52.458;20.914;2024-01-30T00:31:37;102458.88;;;-2.02;87.95
59417;BME280;45222;52.458;20.914;2024-01-30T00:35:24;102460.44;;;-2.07;88.06
59417;BME280;45222;52.458;20.914;2024-01-30T00:39:13;102464.39;;;-2.13;88.17
59417;BME280;45222;52.458;20.914;2024-01-30T00:43:02;102470.90;;;-2.17;88.28
59417;BME280;45222;52.458;20.914;2024-01-30T00:46:50;102474.55;;;-2.21;88.15
59417;BME280;45222;52.458;20.914;2024-01-30T00:50:38;102468.67;;;-2.29;88.00
59417;BME280;45222;52.458;20.914;2024-01-30T00:54:26;102471.25;;;-2.35;88.06
59417;BME280;45222;52.458;20.914;2024-01-30T00:58:14;102467.68;;;-2.37;87.76
59417;BME280;45222;52.458;20.914;2024-01-30T01:02:01;102461.63;;;-2.40;87.97
59417;BME280;45222;52.458;20.914;2024-01-30T01:05:50;102454.54;;;-2.38;87.94
59417;BME280;45222;52.458;20.914;2024-01-30T01:09:38;102453.75;;;-2.32;87.98
59417;BME280;45222;52.458;20.914;2024-01-30T01:13:26;102454.91;;;-2.29;88.22
59417;BME280;45222;52.458;20.914;2024-01-30T01:17:14;102448.05;;;-2.26;88.30
59417;BME280;45222;52.458;20.914;2024-01-30T01:21:02;102442.64;;;-2.26;88.24
59417;BME280;45222;52.458;20.914;2024-01-30T01:24:51;102438.27;;;-2.26;87.95
59417;BME280;45222;52.458;20.914;2024-01-30T01:28:40;102438.73;;;-2.29;87.87
59417;BME280;45222;52.458;20.914;2024-01-30T01:32:28;102431.40;;;-2.29;87.73
59417;BME280;45222;52.458;20.914;2024-01-30T01:36:16;102427.62;;;-2.27;87.78
59417;BME280;45222;52.458;20.914;2024-01-30T01:40:06;102426.17;;;-2.29;87.86
59417;BME280;45222;52.458;20.914;2024-01-30T01:43:54;102423.34;;;-2.25;88.07
59417;BME280;45222;52.458;20.914;2024-01-30T01:47:42;102418.08;;;-2.26;88.28
59417;BME280;45222;52.458;20.914;2024-01-30T01:51:33;102421.14;;;-2.23;88.28
59417;BME280;45222;52.458;20.914;2024-01-30T01:55:22;102414.20;;;-2.22;88.09
59417;BME280;45222;52.458;20.914;2024-01-30T01:59:11;102416.52;;;-2.30;87.77
59417;BME280;45222;52.458;20.914;2024-01-30T02:03:00;102412.67;;;-2.40;87.62
59417;BME280;45222;52.458;20.914;2024-01-30T02:06:48;102412.69;;;-2.49;87.60
59417;BME280;45222;52.458;20.914;2024-01-30T02:10:36;102414.24;;;-2.49;87.69
59417;BME280;45222;52.458;20.914;2024-01-30T02:14:25;102412.08;;;-2.47;87.95
59417;BME280;45222;52.458;20.914;2024-01-30T02:18:12;102405.86;;;-2.45;87.91
59417;BME280;45222;52.458;20.914;2024-01-30T02:22:01;102407.70;;;-2.43;87.89
59417;BME280;45222;52.458;20.914;2024-01-30T02:25:48;102402.39;;;-2.45;87.50
59417;BME280;45222;52.458;20.914;2024-01-30T02:29:43;102405.75;;;-2.53;87.17
59417;BME280;45222;52.458;20.914;2024-01-30T02:33:32;102406.95;;;-2.58;87.17
59417;BME280;45222;52.458;20.914;2024-01-30T02:37:20;102411.30;;;-2.62;87.23
59417;BME280;45222;52.458;20.914;2024-01-30T02:41:08;102416.66;;;-2.59;87.53
59417;BME280;45222;52.458;20.914;2024-01-30T02:44:56;102413.89;;;-2.59;87.77
59417;BME280;45222;52.458;20.914;2024-01-30T02:48:44;102410.19;;;-2.55;87.69
59417;BME280;45222;52.458;20.914;2024-01-30T02:52:32;102416.33;;;-2.54;87.30
59417;BME280;45222;52.458;20.914;2024-01-30T02:56:23;102419.59;;;-2.55;87.18
59417;BME280;45222;52.458;20.914;2024-01-30T03:00:15;102416.34;;;-2.63;86.72
59417;BME280;45222;52.458;20.914;2024-01-30T03:04:03;102413.95;;;-2.71;86.44
59417;BME280;45222;52.458;20.914;2024-01-30T03:07:51;102416.61;;;-2.83;86.24
59417;BME280;45222;52.458;20.914;2024-01-30T03:11:39;102418.30;;;-2.89;86.63
59417;BME280;45222;52.458;20.914;2024-01-30T03:15:27;102408.62;;;-2.87;86.99
59417;BME280;45222;52.458;20.914;2024-01-30T03:19:15;102399.98;;;-2.85;86.94
59417;BME280;45222;52.458;20.914;2024-01-30T03:23:03;102402.49;;;-2.83;86.97
59417;BME280;45222;52.458;20.914;2024-01-30T03:26:52;102394.55;;;-2.86;86.69
59417;BME280;45222;52.458;20.914;2024-01-30T03:30:40;102399.23;;;-2.95;86.40
59417;BME280;45222;52.458;20.914;2024-01-30T03:34:28;102399.06;;;-3.00;86.45
59417;BME280;45222;52.458;20.914;2024-01-30T03:38:16;102396.23;;;-3.01;86.57
59417;BME280;45222;52.458;20.914;2024-01-30T03:42:04;102400.41;;;-3.01;86.55
59417;BME280;45222;52.458;20.914;2024-01-30T03:45:52;102397.14;;;-3.00;86.58
59417;BME280;45222;52.458;20.914;2024-01-30T03:49:40;102394.03;;;-2.95;86.79
59417;BME280;45222;52.458;20.914;2024-01-30T03:53:28;102390.59;;;-2.94;86.83
59417;BME280;45222;52.458;20.914;2024-01-30T03:57:16;102391.74;;;-2.95;86.79
59417;BME280;45222;52.458;20.914;2024-01-30T04:01:04;102390.39;;;-2.99;86.65
59417;BME280;45222;52.458;20.914;2024-01-30T04:04:57;102387.79;;;-3.03;86.61
59417;BME280;45222;52.458;20.914;2024-01-30T04:08:48;102386.98;;;-3.05;86.48
59417;BME280;45222;52.458;20.914;2024-01-30T04:12:36;102391.23;;;-3.08;86.76
59417;BME280;45222;52.458;20.914;2024-01-30T04:16:24;102393.55;;;-3.06;86.83
59417;BME280;45222;52.458;20.914;2024-01-30T04:20:15;102394.94;;;-3.03;86.95
59417;BME280;45222;52.458;20.914;2024-01-30T04:24:04;102387.33;;;-2.97;87.12
59417;BME280;45222;52.458;20.914;2024-01-30T04:27:52;102384.97;;;-2.86;87.34
59417;BME280;45222;52.458;20.914;2024-01-30T04:31:40;102385.21;;;-2.80;87.20
59417;BME280;45222;52.458;20.914;2024-01-30T04:35:27;102389.69;;;-2.81;87.07
59417;BME280;45222;52.458;20.914;2024-01-30T04:39:15;102387.06;;;-2.86;86.76
59417;BME280;45222;52.458;20.914;2024-01-30T04:43:03;102376.96;;;-2.95;86.51
59417;BME280;45222;52.458;20.914;2024-01-30T04:46:51;102381.27;;;-3.01;86.81
59417;BME280;45222;52.458;20.914;2024-01-30T04:50:39;102381.77;;;-3.06;86.66
59417;BME280;45222;52.458;20.914;2024-01-30T04:54:27;102387.00;;;-3.10;86.58
59417;BME280;45222;52.458;20.914;2024-01-30T04:58:15;102388.48;;;-3.16;86.79
59417;BME280;45222;52.458;20.914;2024-01-30T05:02:03;102387.52;;;-3.23;86.97
59417;BME280;45222;52.458;20.914;2024-01-30T05:05:51;102387.78;;;-3.21;87.32
59417;BME280;45222;52.458;20.914;2024-01-30T05:09:38;102387.25;;;-3.12;87.76
59417;BME280;45222;52.458;20.914;2024-01-30T05:13:26;102388.05;;;-3.05;87.87
59417;BME280;45222;52.458;20.914;2024-01-30T05:17:14;102389.23;;;-3.01;87.65
59417;BME280;45222;52.458;20.914;2024-01-30T05:21:03;102392.27;;;-3.00;87.62
59417;BME280;45222;52.458;20.914;2024-01-30T05:24:51;102391.79;;;-2.99;87.15
59417;BME280;45222;52.458;20.914;2024-01-30T05:28:39;102388.38;;;-2.97;87.15
59417;BME280;45222;52.458;20.914;2024-01-30T05:32:27;102380.36;;;-2.92;87.22
59417;BME280;45222;52.458;20.914;2024-01-30T05:36:15;102377.61;;;-2.87;87.26
59417;BME280;45222;52.458;20.914;2024-01-30T05:40:03;102376.44;;;-2.86;87.15
59417;BME280;45222;52.458;20.914;2024-01-30T05:43:54;102376.38;;;-2.87;87.21
59417;BME280;45222;52.458;20.914;2024-01-30T05:47:42;102372.23;;;-2.87;86.89
59417;BME280;45222;52.458;20.914;2024-01-30T05:51:30;102368.42;;;-2.91;86.73
59417;BME280;45222;52.458;20.914;2024-01-30T05:55:17;102369.67;;;-2.94;86.96
59417;BME280;45222;52.458;20.914;2024-01-30T05:59:05;102369.08;;;-2.96;86.83
59417;BME280;45222;52.458;20.914;2024-01-30T06:02:53;102370.08;;;-2.93;87.23
59417;BME280;45222;52.458;20.914;2024-01-30T06:06:41;102366.98;;;-2.88;87.27
59417;BME280;45222;52.458;20.914;2024-01-30T06:10:29;102371.64;;;-2.79;87.32
59417;BME280;45222;52.458;20.914;2024-01-30T06:14:17;102374.21;;;-2.80;87.11
59417;BME280;45222;52.458;20.914;2024-01-30T06:18:05;102380.33;;;-2.80;87.07
59417;BME280;45222;52.458;20.914;2024-01-30T06:21:53;102381.14;;;-2.86;86.86
59417;BME280;45222;52.458;20.914;2024-01-30T06:25:41;102386.52;;;-3.00;86.27
59417;BME280;45222;52.458;20.914;2024-01-30T06:29:29;102389.98;;;-3.13;86.54
59417;BME280;45222;52.458;20.914;2024-01-30T06:33:17;102389.00;;;-3.16;86.66
59417;BME280;45222;52.458;20.914;2024-01-30T06:37:05;102388.52;;;-3.06;87.33
59417;BME280;45222;52.458;20.914;2024-01-30T06:40:53;102383.66;;;-2.97;87.57
59417;BME280;45222;52.458;20.914;2024-01-30T06:44:41;102385.78;;;-2.88;87.41
59417;BME280;45222;52.458;20.914;2024-01-30T06:48:29;102384.43;;;-2.82;87.25
59417;BME280;45222;52.458;20.914;2024-01-30T06:52:17;102386.75;;;-2.76;86.83
59417;BME280;45222;52.458;20.914;2024-01-30T06:56:05;102382.27;;;-2.75;86.94
59417;BME280;45222;52.458;20.914;2024-01-30T06:59:53;102381.58;;;-2.70;86.72
59417;BME280;45222;52.458;20.914;2024-01-30T07:03:41;102382.89;;;-2.67;86.71
59417;BME280;45222;52.458;20.914;2024-01-30T07:07:29;102385.14;;;-2.59;86.98
59417;BME280;45222;52.458;20.914;2024-01-30T07:11:21;102387.48;;;-2.43;87.32
59417;BME280;45222;52.458;20.914;2024-01-30T07:15:11;102379.47;;;-2.24;87.34
59417;BME280;45222;52.458;20.914;2024-01-30T07:19:01;102381.67;;;-2.11;87.34
59417;BME280;45222;52.458;20.914;2024-01-30T07:22:49;102388.38;;;-1.99;87.44
59417;BME280;45222;52.458;20.914;2024-01-30T07:26:37;102390.19;;;-1.87;87.11
59417;BME280;45222;52.458;20.914;2024-01-30T07:30:25;102386.74;;;-1.76;87.06
59417;BME280;45222;52.458;20.914;2024-01-30T07:34:13;102381.44;;;-1.62;87.30
59417;BME280;45222;52.458;20.914;2024-01-30T07:38:01;102388.84;;;-1.44;87.30
59417;BME280;45222;52.458;20.914;2024-01-30T07:41:49;102384.36;;;-1.27;87.48
59417;BME280;45222;52.458;20.914;2024-01-30T07:45:37;102384.40;;;-1.14;87.44
59417;BME280;45222;52.458;20.914;2024-01-30T07:49:26;102382.55;;;-1.01;87.13
59417;BME280;45222;52.458;20.914;2024-01-30T07:53:14;102380.69;;;-0.89;87.04
59417;BME280;45222;52.458;20.914;2024-01-30T07:57:03;102383.26;;;-0.73;87.20
59417;BME280;45222;52.458;20.914;2024-01-30T08:00:50;102379.78;;;-0.54;87.26
59417;BME280;45222;52.458;20.914;2024-01-30T08:04:39;102376.14;;;-0.30;87.51
59417;BME280;45222;52.458;20.914;2024-01-30T08:08:27;102373.95;;;-0.08;87.56
59417;BME280;45222;52.458;20.914;2024-01-30T08:12:15;102371.05;;;0.14;87.10
59417;BME280;45222;52.458;20.914;2024-01-30T08:16:04;102367.66;;;0.32;86.56
59417;BME280;45222;52.458;20.914;2024-01-30T08:19:51;102369.04;;;0.45;85.91
59417;BME280;45222;52.458;20.914;2024-01-30T08:23:40;102368.99;;;0.57;85.86
59417;BME280;45222;52.458;20.914;2024-01-30T08:27:29;102365.27;;;0.70;85.69
59417;BME280;45222;52.458;20.914;2024-01-30T08:31:17;102370.02;;;0.85;85.46
59417;BME280;45222;52.458;20.914;2024-01-30T08:35:05;102370.34;;;1.06;85.36
59417;BME280;45222;52.458;20.914;2024-01-30T08:38:53;102366.05;;;1.26;85.17
59417;BME280;45222;52.458;20.914;2024-01-30T08:42:41;102364.44;;;1.49;84.66
59417;BME280;45222;52.458;20.914;2024-01-30T08:46:30;102359.45;;;1.71;84.18
59417;BME280;45222;52.458;20.914;2024-01-30T08:50:27;102357.86;;;1.88;83.67
59417;BME280;45222;52.458;20.914;2024-01-30T08:54:15;102366.43;;;2.05;83.48
59417;BME280;45222;52.458;20.914;2024-01-30T08:58:03;102361.41;;;2.19;82.39
59417;BME280;45222;52.458;20.914;2024-01-30T09:01:51;102360.59;;;2.32;81.05
59417;BME280;45222;52.458;20.914;2024-01-30T09:05:41;102359.08;;;2.45;80.61
59417;BME280;45222;52.458;20.914;2024-01-30T09:09:29;102359.52;;;2.61;80.83
59417;BME280;45222;52.458;20.914;2024-01-30T09:13:17;102360.60;;;2.74;79.67
59417;BME280;45222;52.458;20.914;2024-01-30T09:17:06;102359.55;;;2.85;79.49
59417;BME280;45222;52.458;20.914;2024-01-30T09:20:54;102353.90;;;2.96;78.53
59417;BME280;45222;52.458;20.914;2024-01-30T09:24:42;102346.65;;;3.05;78.19
59417;BME280;45222;52.458;20.914;2024-01-30T09:28:29;102346.28;;;3.16;77.84
59417;BME280;45222;52.458;20.914;2024-01-30T09:32:17;102344.69;;;3.29;77.43
59417;BME280;45222;52.458;20.914;2024-01-30T09:36:07;102340.85;;;3.43;76.71
59417;BME280;45222;52.458;20.914;2024-01-30T09:39:55;102338.34;;;3.55;76.41
59417;BME280;45222;52.458;20.914;2024-01-30T09:43:47;102336.86;;;3.62;75.21
59417;BME280;45222;52.458;20.914;2024-01-30T09:47:41;102331.68;;;3.72;75.15
59417;BME280;45222;52.458;20.914;2024-01-30T09:51:30;102330.91;;;3.82;74.51
59417;BME280;45222;52.458;20.914;2024-01-30T09:55:18;102331.21;;;3.93;74.32
59417;BME280;45222;52.458;20.914;2024-01-30T09:59:06;102328.14;;;4.02;74.03
59417;BME280;45222;52.458;20.914;2024-01-30T10:02:54;102327.40;;;4.16;73.53
59417;BME280;45222;52.458;20.914;2024-01-30T10:06:43;102322.77;;;4.29;72.70
59417;BME280;45222;52.458;20.914;2024-01-30T10:10:31;102317.59;;;4.43;72.82
59417;BME280;45222;52.458;20.914;2024-01-30T10:14:18;102316.45;;;4.54;71.52
59417;BME280;45222;52.458;20.914;2024-01-30T10:18:07;102310.69;;;4.62;71.21
59417;BME280;45222;52.458;20.914;2024-01-30T10:21:56;102311.29;;;4.72;70.54
59417;BME280;45222;52.458;20.914;2024-01-30T10:25:44;102303.41;;;4.79;68.87
59417;BME280;45222;52.458;20.914;2024-01-30T10:29:33;102302.05;;;4.86;69.06
59417;BME280;45222;52.458;20.914;2024-01-30T10:33:20;102298.58;;;4.96;69.00
59417;BME280;45222;52.458;20.914;2024-01-30T10:37:10;102295.80;;;5.04;67.82
59417;BME280;45222;52.458;20.914;2024-01-30T10:41:02;102284.56;;;5.14;67.66
59417;BME280;45222;52.458;20.914;2024-01-30T10:44:59;102274.04;;;5.26;67.51
59417;BME280;45222;52.458;20.914;2024-01-30T10:48:55;102271.42;;;5.35;67.36
59417;BME280;45222;52.458;20.914;2024-01-30T10:52:45;102268.46;;;5.44;66.06
59417;BME280;45222;52.458;20.914;2024-01-30T10:56:33;102265.48;;;5.50;65.76
59417;BME280;45222;52.458;20.914;2024-01-30T11:00:22;102258.61;;;5.55;65.94
59417;BME280;45222;52.458;20.914;2024-01-30T11:04:10;102252.98;;;5.60;65.08
59417;BME280;45222;52.458;20.914;2024-01-30T11:07:58;102248.40;;;5.66;65.12
59417;BME280;45222;52.458;20.914;2024-01-30T11:11:55;102243.98;;;5.69;64.28
59417;BME280;45222;52.458;20.914;2024-01-30T11:15:48;102241.70;;;5.72;64.40
59417;BME280;45222;52.458;20.914;2024-01-30T11:19:36;102238.36;;;5.75;65.06
59417;BME280;45222;52.458;20.914;2024-01-30T11:23:25;102237.65;;;5.80;64.20
59417;BME280;45222;52.458;20.914;2024-01-30T11:27:14;102233.60;;;5.84;63.75
59417;BME280;45222;52.458;20.914;2024-01-30T11:31:06;102230.25;;;5.87;63.86
59417;BME280;45222;52.458;20.914;2024-01-30T11:34:55;102221.59;;;5.91;63.53
59417;BME280;45222;52.458;20.914;2024-01-30T11:38:42;102220.73;;;5.96;63.01
59417;BME280;45222;52.458;20.914;2024-01-30T11:42:32;102217.38;;;6.00;62.36
59417;BME280;45222;52.458;20.914;2024-01-30T11:46:21;102212.42;;;6.02;62.02
59417;BME280;45222;52.458;20.914;2024-01-30T11:50:10;102209.45;;;6.04;62.07
59417;BME280;45222;52.458;20.914;2024-01-30T11:53:58;102207.15;;;6.06;61.87
59417;BME280;45222;52.458;20.914;2024-01-30T11:57:46;102203.96;;;6.10;61.87
59417;BME280;45222;52.458;20.914;2024-01-30T12:01:36;102201.14;;;6.15;61.80
59417;BME280;45222;52.458;20.914;2024-01-30T12:05:24;102198.13;;;6.21;61.90
59417;BME280;45222;52.458;20.914;2024-01-30T12:09:13;102201.84;;;6.28;61.70
59417;BME280;45222;52.458;20.914;2024-01-30T12:13:02;102196.17;;;6.35;61.34
59417;BME280;45222;52.458;20.914;2024-01-30T12:16:51;102192.45;;;6.42;62.17
59417;BME280;45222;52.458;20.914;2024-01-30T12:20:39;102192.97;;;6.49;61.46
59417;BME280;45222;52.458;20.914;2024-01-30T12:24:27;102191.71;;;6.53;61.46
59417;BME280;45222;52.458;20.914;2024-01-30T12:28:16;102195.59;;;6.60;60.96
59417;BME280;45222;52.458;20.914;2024-01-30T12:32:05;102194.70;;;6.65;60.45
59417;BME280;45222;52.458;20.914;2024-01-30T12:35:53;102195.55;;;6.71;60.88
59417;BME280;45222;52.458;20.914;2024-01-30T12:39:42;102197.30;;;6.80;60.49
59417;BME280;45222;52.458;20.914;2024-01-30T12:43:31;102195.88;;;6.83;59.21
59417;BME280;45222;52.458;20.914;2024-01-30T12:47:17;102196.41;;;6.82;59.24
59417;BME280;45222;52.458;20.914;2024-01-30T12:51:05;102194.30;;;6.79;59.83
59417;BME280;45222;52.458;20.914;2024-01-30T12:54:53;102189.52;;;6.78;59.72
59417;BME280;45222;52.458;20.914;2024-01-30T12:58:42;102182.45;;;6.80;59.94
59417;BME280;45222;52.458;20.914;2024-01-30T13:02:30;102177.67;;;6.81;59.62
59417;BME280;45222;52.458;20.914;2024-01-30T13:06:22;102177.15;;;6.76;59.16
59417;BME280;45222;52.458;20.914;2024-01-30T13:10:11;102174.67;;;6.74;58.77
59417;BME280;45222;52.458;20.914;2024-01-30T13:13:58;102174.87;;;6.73;59.10
59417;BME280;45222;52.458;20.914;2024-01-30T13:17:46;102169.90;;;6.79;59.01
59417;BME280;45222;52.458;20.914;2024-01-30T13:21:35;102166.65;;;6.92;58.99
59417;BME280;45222;52.458;20.914;2024-01-30T13:25:23;102164.13;;;7.04;58.53
59417;BME280;45222;52.458;20.914;2024-01-30T13:29:10;102163.19;;;7.16;58.40
59417;BME280;45222;52.458;20.914;2024-01-30T13:32:58;102161.51;;;7.29;58.15
59417;BME280;45222;52.458;20.914;2024-01-30T13:36:46;102162.66;;;7.43;57.90
59417;BME280;45222;52.458;20.914;2024-01-30T13:40:35;102157.61;;;7.56;57.29
59417;BME280;45222;52.458;20.914;2024-01-30T13:44:23;102157.56;;;7.63;57.63
59417;BME280;45222;52.458;20.914;2024-01-30T13:48:11;102154.35;;;7.69;56.93
59417;BME280;45222;52.458;20.914;2024-01-30T13:52:17;102156.77;;;7.76;57.09
59417;BME280;45222;52.458;20.914;2024-01-30T13:56:05;102155.64;;;7.82;56.27
59417;BME280;45222;52.458;20.914;2024-01-30T13:59:56;102159.33;;;7.86;56.06
59417;BME280;45222;52.458;20.914;2024-01-30T14:03:54;102156.29;;;7.88;56.00
59417;BME280;45222;52.458;20.914;2024-01-30T14:07:42;102155.90;;;7.93;56.09
59417;BME280;45222;52.458;20.914;2024-01-30T14:11:30;102152.49;;;8.00;56.07
59417;BME280;45222;52.458;20.914;2024-01-30T14:15:18;102152.98;;;8.03;55.56
59417;BME280;45222;52.458;20.914;2024-01-30T14:19:06;102146.95;;;8.03;55.21
59417;BME280;45222;52.458;20.914;2024-01-30T14:22:54;102146.98;;;7.99;55.20
59417;BME280;45222;52.458;20.914;2024-01-30T14:26:42;102143.85;;;7.93;55.56
59417;BME280;45222;52.458;20.914;2024-01-30T14:30:30;102140.34;;;7.89;55.19
59417;BME280;45222;52.458;20.914;2024-01-30T14:34:18;102136.33;;;7.84;55.67
59417;BME280;45222;52.458;20.914;2024-01-30T14:38:06;102137.64;;;7.74;56.04
59417;BME280;45222;52.458;20.914;2024-01-30T14:41:54;102137.02;;;7.64;56.02
59417;BME280;45222;52.458;20.914;2024-01-30T14:45:42;102133.40;;;7.50;56.26
59417;BME280;45222;52.458;20.914;2024-01-30T14:49:33;102132.13;;;7.29;56.16
59417;BME280;45222;52.458;20.914;2024-01-30T14:53:21;102127.34;;;7.03;56.69
59417;BME280;45222;52.458;20.914;2024-01-30T14:57:08;102126.75;;;6.78;57.29
59417;BME280;45222;52.458;20.914;2024-01-30T15:00:57;102119.42;;;6.53;57.61
59417;BME280;45222;52.458;20.914;2024-01-30T15:04:45;102120.92;;;6.25;57.91
59417;BME280;45222;52.458;20.914;2024-01-30T15:08:33;102127.84;;;6.00;58.50
59417;BME280;45222;52.458;20.914;2024-01-30T15:12:21;102121.31;;;5.74;58.76
59417;BME280;45222;52.458;20.914;2024-01-30T15:16:09;102124.83;;;5.49;59.34
59417;BME280;45222;52.458;20.914;2024-01-30T15:19:57;102124.62;;;5.25;59.75
59417;BME280;45222;52.458;20.914;2024-01-30T15:23:46;102124.74;;;5.01;60.31
59417;BME280;45222;52.458;20.914;2024-01-30T15:27:34;102123.96;;;4.77;60.65
59417;BME280;45222;52.458;20.914;2024-01-30T15:31:22;102129.52;;;4.54;61.20
59417;BME280;45222;52.458;20.914;2024-01-30T15:35:11;102123.40;;;4.33;61.81
59417;BME280;45222;52.458;20.914;2024-01-30T15:38:59;102118.70;;;4.12;61.96
59417;BME280;45222;52.458;20.914;2024-01-30T15:42:46;102122.79;;;3.93;62.55
59417;BME280;45222;52.458;20.914;2024-01-30T15:46:35;102127.75;;;3.73;63.25
59417;BME280;45222;52.458;20.914;2024-01-30T15:50:23;102128.66;;;3.56;63.64
59417;BME280;45222;52.458;20.914;2024-01-30T15:54:11;102130.63;;;3.40;64.17
59417;BME280;45222;52.458;20.914;2024-01-30T15:57:59;102130.14;;;3.26;64.56
59417;BME280;45222;52.458;20.914;2024-01-30T16:01:46;102123.33;;;3.13;64.84
59417;BME280;45222;52.458;20.914;2024-01-30T16:05:36;102118.80;;;3.00;65.21
59417;BME280;45222;52.458;20.914;2024-01-30T16:09:25;102118.48;;;2.88;65.70
59417;BME280;45222;52.458;20.914;2024-01-30T16:13:12;102117.48;;;2.77;65.94
59417;BME280;45222;52.458;20.914;2024-01-30T16:17:00;102119.51;;;2.70;66.65
59417;BME280;45222;52.458;20.914;2024-01-30T16:20:48;102122.65;;;2.68;67.34
59417;BME280;45222;52.458;20.914;2024-01-30T16:24:36;102125.99;;;2.68;67.88
59417;BME280;45222;52.458;20.914;2024-01-30T16:28:25;102125.81;;;2.69;67.79
59417;BME280;45222;52.458;20.914;2024-01-30T16:32:14;102118.41;;;2.67;67.88
59417;BME280;45222;52.458;20.914;2024-01-30T16:36:02;102113.28;;;2.64;67.91
59417;BME280;45222;52.458;20.914;2024-01-30T16:39:50;102115.32;;;2.59;67.82
59417;BME280;45222;52.458;20.914;2024-01-30T16:43:38;102113.14;;;2.53;68.03
59417;BME280;45222;52.458;20.914;2024-01-30T16:47:26;102111.09;;;2.44;68.13
59417;BME280;45222;52.458;20.914;2024-01-30T16:51:15;102108.86;;;2.35;68.16
59417;BME280;45222;52.458;20.914;2024-01-30T16:55:03;102105.39;;;2.25;68.49
59417;BME280;45222;52.458;20.914;2024-01-30T16:58:51;102108.08;;;2.17;68.67
59417;BME280;45222;52.458;20.914;2024-01-30T17:02:39;102105.16;;;2.08;68.76
59417;BME280;45222;52.458;20.914;2024-01-30T17:06:27;102100.12;;;1.99;68.91
59417;BME280;45222;52.458;20.914;2024-01-30T17:10:15;102098.23;;;1.90;69.07
59417;BME280;45222;52.458;20.914;2024-01-30T17:14:04;102096.71;;;1.83;69.24
59417;BME280;45222;52.458;20.914;2024-01-30T17:17:52;102100.73;;;1.82;69.98
59417;BME280;45222;52.458;20.914;2024-01-30T17:21:40;102102.09;;;1.79;70.18
59417;BME280;45222;52.458;20.914;2024-01-30T17:25:28;102097.84;;;1.76;70.41
59417;BME280;45222;52.458;20.914;2024-01-30T17:29:18;102094.75;;;1.70;70.69
59417;BME280;45222;52.458;20.914;2024-01-30T17:33:06;102095.03;;;1.65;70.56
59417;BME280;45222;52.458;20.914;2024-01-30T17:36:54;102094.41;;;1.59;70.85
59417;BME280;45222;52.458;20.914;2024-01-30T17:40:42;102094.86;;;1.54;70.74
59417;BME280;45222;52.458;20.914;2024-01-30T17:44:30;102091.77;;;1.47;70.73
59417;BME280;45222;52.458;20.914;2024-01-30T17:48:19;102091.63;;;1.40;70.91
59417;BME280;45222;52.458;20.914;2024-01-30T17:52:08;102090.27;;;1.32;71.12
59417;BME280;45222;52.458;20.914;2024-01-30T17:55:56;102088.91;;;1.24;71.26
59417;BME280;45222;52.458;20.914;2024-01-30T17:59:47;102089.64;;;1.16;71.40
59417;BME280;45222;52.458;20.914;2024-01-30T18:03:36;102085.74;;;1.14;72.02
59417;BME280;45222;52.458;20.914;2024-01-30T18:07:24;102090.66;;;1.14;72.33
59417;BME280;45222;52.458;20.914;2024-01-30T18:11:12;102085.05;;;1.14;72.45
59417;BME280;45222;52.458;20.914;2024-01-30T18:15:00;102087.83;;;1.13;72.48
59417;BME280;45222;52.458;20.914;2024-01-30T18:18:48;102088.12;;;1.09;72.48
59417;BME280;45222;52.458;20.914;2024-01-30T18:22:36;102088.00;;;1.02;72.48
59417;BME280;45222;52.458;20.914;2024-01-30T18:26:33;102089.69;;;0.90;72.63
59417;BME280;45222;52.458;20.914;2024-01-30T18:30:23;102091.29;;;0.82;72.69
59417;BME280;45222;52.458;20.914;2024-01-30T18:34:11;102085.25;;;0.68;73.08
59417;BME280;45222;52.458;20.914;2024-01-30T18:38:00;102080.66;;;0.58;73.23
59417;BME280;45222;52.458;20.914;2024-01-30T18:41:50;102080.17;;;0.52;73.39
59417;BME280;45222;52.458;20.914;2024-01-30T18:45:38;102081.14;;;0.48;74.05
59417;BME280;45222;52.458;20.914;2024-01-30T18:49:25;102078.52;;;0.40;74.43
59417;BME280;45222;52.458;20.914;2024-01-30T18:53:13;102077.17;;;0.33;75.09
59417;BME280;45222;52.458;20.914;2024-01-30T18:57:01;102075.46;;;0.27;75.22
59417;BME280;45222;52.458;20.914;2024-01-30T19:00:50;102076.91;;;0.21;75.19
59417;BME280;45222;52.458;20.914;2024-01-30T19:04:38;102069.20;;;0.13;75.32
59417;BME280;45222;52.458;20.914;2024-01-30T19:08:26;102066.87;;;0.01;75.63
59417;BME280;45222;52.458;20.914;2024-01-30T19:12:15;102063.71;;;-0.07;75.62
59417;BME280;45222;52.458;20.914;2024-01-30T19:16:03;102061.61;;;-0.14;75.93
59417;BME280;45222;52.458;20.914;2024-01-30T19:19:52;102056.91;;;-0.14;76.45
59417;BME280;45222;52.458;20.914;2024-01-30T19:23:40;102052.33;;;-0.15;76.60
59417;BME280;45222;52.458;20.914;2024-01-30T19:27:29;102046.84;;;-0.10;76.89
59417;BME280;45222;52.458;20.914;2024-01-30T19:31:17;102044.46;;;-0.07;76.84
59417;BME280;45222;52.458;20.914;2024-01-30T19:35:06;102041.45;;;-0.09;77.03
59417;BME280;45222;52.458;20.914;2024-01-30T19:38:54;102046.30;;;-0.11;76.76
59417;BME280;45222;52.458;20.914;2024-01-30T19:42:45;102048.75;;;-0.19;77.13
59417;BME280;45222;52.458;20.914;2024-01-30T19:46:34;102044.84;;;-0.21;76.87